Time;durP1;ratioP1;P1;durP2;ratioP2;P2;SDS_P1;SDS_P2;PMS_P1;PMS_P2;Temp;Humidity;BMP_temperature;BMP_pressure;BME280_temperature;BME280_humidity;BME280_pressure;Samples;Min_cycle;Max_cycle;Signal;HPM_P1;HPM_P2
2023/06/11 00:01:40;;;;;;;14.13;10.60;;;20.20;99.90;;;;;;5028775;28;20506;-74
2023/06/11 00:04:06;;;;;;;11.52;9.52;;;20.20;99.90;;;;;;5005524;28;20602;-74
2023/06/11 00:06:33;;;;;;;13.47;10.40;;;20.20;99.90;;;;;;5029132;28;20486;-74
2023/06/11 00:08:59;;;;;;;14.85;9.63;;;20.10;99.90;;;;;;4998856;28;20976;-74
2023/06/11 00:11:26;;;;;;;11.20;9.38;;;20.00;99.90;;;;;;4985703;28;21461;-74
2023/06/11 00:13:53;;;;;;;12.98;9.00;;;20.00;99.90;;;;;;4996258;28;20500;-74
2023/06/11 00:16:20;;;;;;;11.65;8.63;;;20.00;99.90;;;;;;5026884;28;20421;-74
2023/06/11 00:18:47;;;;;;;11.57;8.70;;;20.00;99.90;;;;;;5000709;28;20415;-74
2023/06/11 00:21:15;;;;;;;14.18;9.02;;;20.00;99.90;;;;;;4994829;28;20944;-74
2023/06/11 00:23:41;;;;;;;12.70;8.35;;;19.90;99.90;;;;;;4996239;28;20866;-74
2023/06/11 00:26:08;;;;;;;13.27;9.30;;;20.00;99.90;;;;;;4997461;28;20467;-74
2023/06/11 00:28:34;;;;;;;14.00;8.93;;;20.10;99.90;;;;;;5008901;28;20861;-74
2023/06/11 00:31:03;;;;;;;13.80;9.07;;;20.20;99.90;;;;;;4988307;28;21302;-74
2023/06/11 00:33:30;;;;;;;13.93;9.30;;;20.20;99.90;;;;;;4997018;28;20428;-74
2023/06/11 00:35:56;;;;;;;14.43;9.23;;;20.20;99.90;;;;;;4988959;28;20408;-74
2023/06/11 00:38:22;;;;;;;15.65;9.75;;;20.20;99.90;;;;;;4997590;28;21128;-74
2023/06/11 00:40:48;;;;;;;16.27;10.10;;;20.20;99.90;;;;;;5000566;28;20421;-74
2023/06/11 00:43:21;;;;;;;13.68;10.00;;;20.10;99.90;;;;;;5013359;28;20415;-74
2023/06/11 00:45:50;;;;;;;15.35;9.55;;;20.10;99.90;;;;;;4995538;28;20454;-74
2023/06/11 00:48:21;;;;;;;12.23;9.00;;;20.10;99.90;;;;;;4995019;28;20449;-74
2023/06/11 00:50:51;;;;;;;16.52;9.38;;;20.10;99.90;;;;;;5002667;28;20555;-74
2023/06/11 00:53:21;;;;;;;15.10;9.73;;;20.10;99.90;;;;;;4998019;28;20455;-74
2023/06/11 00:55:48;;;;;;;15.55;8.98;;;20.10;99.90;;;;;;5029064;28;20423;-74
2023/06/11 00:58:17;;;;;;;13.00;9.15;;;20.00;99.90;;;;;;4997953;28;20492;-73
2023/06/11 01:00:57;;;;;;;14.60;9.23;;;20.00;99.90;;;;;;4998183;28;20409;-74
2023/06/11 01:03:27;;;;;;;15.27;9.05;;;20.00;99.90;;;;;;5001962;28;20428;-74
2023/06/11 01:06:06;;;;;;;19.35;9.90;;;20.00;99.90;;;;;;4994404;28;20416;-74
2023/06/11 01:08:38;;;;;;;15.20;9.68;;;20.00;99.90;;;;;;5010723;28;20411;-74
2023/06/11 01:11:21;;;;;;;16.73;9.40;;;20.00;99.90;;;;;;5000204;28;20431;-74
2023/06/11 01:13:48;;;;;;;15.32;9.40;;;20.00;99.90;;;;;;5011519;28;20423;-74
2023/06/11 01:16:34;;;;;;;17.80;10.30;;;20.00;99.90;;;;;;4998071;28;20416;-74
2023/06/11 01:19:30;;;;;;;14.25;10.00;;;20.00;99.90;;;;;;4996981;28;20476;-74
2023/06/11 01:22:05;;;;;;;14.88;9.82;;;20.00;99.90;;;;;;4988143;28;20426;-74
2023/06/11 01:25:37;;;;;;;14.63;10.50;;;19.90;99.90;;;;;;4998243;28;20763;-72
2023/06/11 01:28:16;;;;;;;13.50;9.60;;;19.90;99.90;;;;;;5013284;28;20415;-72
2023/06/11 01:30:49;;;;;;;14.75;10.32;;;19.90;99.90;;;;;;5034864;28;20522;-72
2023/06/11 01:33:18;;;;;;;15.13;9.95;;;19.90;99.90;;;;;;4993899;28;20431;-72
2023/06/11 01:35:48;;;;;;;14.40;10.00;;;19.90;99.90;;;;;;4998959;28;20882;-72
2023/06/11 01:38:15;;;;;;;15.13;9.80;;;19.90;99.90;;;;;;4997376;28;20422;-72
2023/06/11 01:40:41;;;;;;;11.52;9.23;;;19.90;99.90;;;;;;5028455;28;20407;-72
2023/06/11 01:43:08;;;;;;;13.05;9.60;;;19.90;99.90;;;;;;5002831;28;20411;-72
2023/06/11 01:45:36;;;;;;;12.77;9.70;;;19.90;99.90;;;;;;4996227;28;20479;-72
2023/06/11 01:48:03;;;;;;;12.55;9.15;;;19.90;99.90;;;;;;4995572;28;20422;-72
2023/06/11 01:50:29;;;;;;;12.77;9.25;;;19.90;99.90;;;;;;4999495;28;20517;-72
2023/06/11 01:52:55;;;;;;;14.40;9.07;;;19.80;99.90;;;;;;5010176;28;21124;-72
2023/06/11 01:55:22;;;;;;;12.88;9.40;;;19.80;99.90;;;;;;5028113;28;20420;-72
2023/06/11 01:57:48;;;;;;;14.93;9.75;;;19.80;99.90;;;;;;4999194;28;20430;-72
2023/06/11 02:00:15;;;;;;;13.40;9.02;;;19.80;99.90;;;;;;4999527;28;20785;-72
2023/06/11 02:02:46;;;;;;;12.60;8.98;;;19.80;99.90;;;;;;5026942;28;20424;-73
2023/06/11 02:05:13;;;;;;;15.93;9.10;;;19.80;99.90;;;;;;5001241;28;20514;-73
2023/06/11 02:07:39;;;;;;;12.38;8.45;;;19.80;99.90;;;;;;4996657;28;20420;-73
2023/06/11 02:10:06;;;;;;;16.17;8.95;;;19.90;99.90;;;;;;4990845;28;20412;-72
2023/06/11 02:12:32;;;;;;;15.73;8.90;;;19.90;99.90;;;;;;5026041;28;20552;-73
2023/06/11 02:14:58;;;;;;;13.30;8.63;;;19.90;99.90;;;;;;4995221;28;20418;-72
2023/06/11 02:17:25;;;;;;;16.88;8.70;;;19.80;99.90;;;;;;4992059;28;21437;-72
2023/06/11 02:19:51;;;;;;;17.17;8.97;;;19.80;99.90;;;;;;4994170;28;21483;-73
2023/06/11 02:22:17;;;;;;;16.90;8.48;;;19.90;99.90;;;;;;4994675;28;20427;-73
2023/06/11 02:24:43;;;;;;;13.48;8.35;;;19.90;99.90;;;;;;5000834;28;20454;-73
2023/06/11 02:27:10;;;;;;;15.25;8.77;;;19.90;99.90;;;;;;4999021;28;20436;-72
2023/06/11 02:29:36;;;;;;;12.75;8.32;;;19.90;99.90;;;;;;5028168;28;20650;-73
2023/06/11 02:32:04;;;;;;;15.93;8.83;;;19.80;99.90;;;;;;4988857;28;20504;-73
2023/06/11 02:34:31;;;;;;;15.88;8.85;;;19.80;99.90;;;;;;4994824;28;20411;-72
2023/06/11 02:36:57;;;;;;;15.45;8.45;;;19.80;99.90;;;;;;5025882;28;20455;-73
2023/06/11 02:39:23;;;;;;;12.80;8.23;;;19.90;99.90;;;;;;4993061;28;20782;-73
2023/06/11 02:41:51;;;;;;;13.93;8.52;;;19.90;99.90;;;;;;5000981;28;20423;-73
2023/06/11 02:44:17;;;;;;;13.70;8.60;;;19.80;99.90;;;;;;4997193;28;20452;-73
2023/06/11 02:46:43;;;;;;;14.57;8.27;;;19.90;99.90;;;;;;4995237;28;20417;-73
2023/06/11 02:49:09;;;;;;;13.32;8.80;;;19.80;99.90;;;;;;4994626;28;20469;-73
2023/06/11 02:51:35;;;;;;;14.70;8.40;;;19.80;99.90;;;;;;5027303;28;20431;-73
2023/06/11 02:54:02;;;;;;;14.27;8.70;;;19.80;99.90;;;;;;5011799;28;20415;-73
2023/06/11 02:56:28;;;;;;;12.77;8.85;;;19.80;99.90;;;;;;4993633;28;20414;-73
2023/06/11 02:58:55;;;;;;;15.93;9.00;;;19.80;99.90;;;;;;5001789;28;20487;-73
2023/06/11 03:01:21;;;;;;;15.38;8.85;;;19.80;99.90;;;;;;5000779;28;20452;-73
2023/06/11 03:03:47;;;;;;;13.65;8.18;;;19.80;99.90;;;;;;5020802;28;20953;-72
2023/06/11 03:06:14;;;;;;;13.57;7.68;;;19.80;99.90;;;;;;4999642;28;20414;-73
2023/06/11 03:08:40;;;;;;;15.10;7.90;;;19.80;99.90;;;;;;4998139;28;20434;-73
2023/06/11 03:11:06;;;;;;;14.18;8.40;;;19.80;99.90;;;;;;4998799;28;20475;-73
2023/06/11 03:13:32;;;;;;;14.98;8.88;;;19.80;99.90;;;;;;4994802;28;20403;-72
2023/06/11 03:15:59;;;;;;;15.75;8.60;;;19.80;99.90;;;;;;5035996;28;20426;-73
2023/06/11 03:18:25;;;;;;;13.85;8.73;;;19.80;99.90;;;;;;4989509;28;20416;-72
2023/06/11 03:20:51;;;;;;;16.40;9.30;;;19.80;99.90;;;;;;5004550;28;20423;-73
2023/06/11 03:23:17;;;;;;;15.53;8.87;;;19.80;99.90;;;;;;5000711;28;20446;-73
2023/06/11 03:25:44;;;;;;;15.20;8.73;;;19.90;99.90;;;;;;5002944;28;20428;-73
2023/06/11 03:28:10;;;;;;;15.70;9.45;;;19.80;99.90;;;;;;4988042;28;20580;-73
2023/06/11 03:30:36;;;;;;;16.75;9.50;;;19.80;99.90;;;;;;4999249;28;20411;-73
2023/06/11 03:33:02;;;;;;;16.50;9.87;;;19.80;99.90;;;;;;5028054;28;20429;-73
2023/06/11 03:35:29;;;;;;;15.20;9.47;;;19.80;99.90;;;;;;5033363;28;20554;-73
2023/06/11 03:37:55;;;;;;;16.05;9.32;;;19.80;99.90;;;;;;4986399;28;20408;-73
2023/06/11 03:40:21;;;;;;;17.08;9.55;;;19.90;99.90;;;;;;5000260;28;20420;-73
2023/06/11 03:42:47;;;;;;;17.05;8.18;;;19.90;99.90;;;;;;4999733;28;20437;-73
2023/06/11 03:45:14;;;;;;;13.43;8.32;;;19.90;99.90;;;;;;5004915;28;20510;-73
2023/06/11 03:47:40;;;;;;;16.20;9.35;;;19.90;99.90;;;;;;4999308;28;22314;-73
2023/06/11 03:50:07;;;;;;;16.60;9.00;;;19.90;99.90;;;;;;5001040;28;21248;-73
2023/06/11 03:52:33;;;;;;;14.30;8.65;;;19.90;99.90;;;;;;4995121;28;20415;-73
2023/06/11 03:54:59;;;;;;;14.10;8.77;;;19.90;99.90;;;;;;5027160;28;20467;-73
2023/06/11 03:57:26;;;;;;;15.15;8.73;;;19.90;99.90;;;;;;4997201;28;20948;-73
2023/06/11 03:59:52;;;;;;;17.35;8.98;;;20.00;99.90;;;;;;4993981;28;20413;-73
2023/06/11 04:02:18;;;;;;;14.15;8.55;;;20.00;99.90;;;;;;5001714;28;20494;-73
2023/06/11 04:04:45;;;;;;;14.95;9.00;;;20.10;99.90;;;;;;5001292;28;20420;-73
2023/06/11 04:07:11;;;;;;;13.57;8.35;;;20.10;99.90;;;;;;5031914;28;20448;-73
2023/06/11 04:09:37;;;;;;;13.88;8.90;;;20.10;99.90;;;;;;4996008;28;20444;-73
2023/06/11 04:12:05;;;;;;;16.60;8.82;;;20.20;99.90;;;;;;4981665;28;20415;-73
2023/06/11 04:14:32;;;;;;;15.80;8.50;;;20.20;99.90;;;;;;5030301;28;20424;-73
2023/06/11 04:16:58;;;;;;;14.93;8.25;;;20.20;99.90;;;;;;4997879;28;20469;-73
2023/06/11 04:19:24;;;;;;;17.40;8.37;;;20.20;99.90;;;;;;4995765;28;21168;-73
2023/06/11 04:21:51;;;;;;;16.17;8.23;;;20.30;99.90;;;;;;5003898;28;20426;-73
2023/06/11 04:24:17;;;;;;;16.77;8.93;;;20.30;99.90;;;;;;4997855;28;20440;-72
2023/06/11 04:26:44;;;;;;;16.00;7.97;;;20.30;99.90;;;;;;4999755;28;20416;-73
2023/06/11 04:29:10;;;;;;;16.10;8.45;;;20.40;99.90;;;;;;5029325;28;20459;-73
2023/06/11 04:31:36;;;;;;;16.73;8.32;;;20.40;99.90;;;;;;4985526;28;20463;-73
2023/06/11 04:34:06;;;;;;;14.20;7.95;;;20.50;99.90;;;;;;4988159;28;20412;-73
2023/06/11 04:36:32;;;;;;;12.47;7.80;;;20.50;99.90;;;;;;4997626;28;20886;-73
2023/06/11 04:39:03;;;;;;;12.73;7.72;;;20.60;99.90;;;;;;4996378;28;20420;-73
2023/06/11 04:41:31;;;;;;;14.80;7.72;;;20.60;99.90;;;;;;4994228;28;20506;-73
2023/06/11 04:44:00;;;;;;;15.38;7.90;;;20.70;99.90;;;;;;5028677;28;20893;-73
2023/06/11 04:46:27;;;;;;;14.32;7.90;;;20.70;99.90;;;;;;5020556;28;20801;-73
2023/06/11 04:48:57;;;;;;;15.00;8.15;;;20.80;99.90;;;;;;5028684;28;20450;-72
2023/06/11 04:51:23;;;;;;;12.05;7.43;;;20.80;99.90;;;;;;5032467;28;20471;-73
2023/06/11 04:53:52;;;;;;;14.48;7.85;;;20.90;99.90;;;;;;5002832;28;20544;-73
2023/06/11 04:56:18;;;;;;;12.98;7.90;;;20.90;99.90;;;;;;4995091;28;20445;-73
2023/06/11 04:58:44;;;;;;;13.98;7.78;;;20.90;99.90;;;;;;4995900;28;20451;-73
2023/06/11 05:01:12;;;;;;;15.68;7.85;;;21.00;99.90;;;;;;5028711;28;20420;-73
2023/06/11 05:03:38;;;;;;;12.43;7.75;;;21.00;99.90;;;;;;5026067;28;21112;-73
2023/06/11 05:06:05;;;;;;;12.77;7.55;;;21.10;99.90;;;;;;5016717;28;20417;-73
2023/06/11 05:08:32;;;;;;;11.55;7.20;;;21.10;99.90;;;;;;5015301;28;21028;-73
2023/06/11 05:10:58;;;;;;;14.52;8.32;;;21.20;99.90;;;;;;5019722;28;20476;-73
2023/06/11 05:13:25;;;;;;;13.90;7.70;;;21.20;99.90;;;;;;5025286;28;20488;-73
2023/06/11 05:15:53;;;;;;;11.98;7.60;;;21.30;99.90;;;;;;4995924;28;20539;-72
2023/06/11 05:18:20;;;;;;;12.88;7.75;;;21.30;99.90;;;;;;4998495;28;20426;-73
2023/06/11 05:20:50;;;;;;;13.77;7.90;;;21.30;99.90;;;;;;5027884;28;20865;-73
2023/06/11 05:23:18;;;;;;;15.50;8.15;;;21.40;99.90;;;;;;4994686;28;20440;-73
2023/06/11 05:25:47;;;;;;;11.88;7.90;;;21.50;99.90;;;;;;5033665;28;20409;-73
2023/06/11 05:28:17;;;;;;;14.18;7.90;;;21.50;99.90;;;;;;4998806;28;20852;-73
2023/06/11 05:30:46;;;;;;;13.45;7.60;;;21.60;99.90;;;;;;4995694;28;20902;-73
2023/06/11 05:33:13;;;;;;;11.43;7.40;;;21.70;99.90;;;;;;4986572;28;20421;-73
2023/06/11 05:35:42;;;;;;;12.18;7.30;;;21.70;99.90;;;;;;4995853;28;20426;-73
2023/06/11 05:38:09;;;;;;;14.88;6.95;;;21.80;99.90;;;;;;4995879;28;20928;-73
2023/06/11 05:40:36;;;;;;;13.20;6.70;;;21.90;99.90;;;;;;4997851;28;20417;-73
2023/06/11 05:43:06;;;;;;;13.52;6.95;;;22.00;99.90;;;;;;4992064;28;20416;-73
2023/06/11 05:45:34;;;;;;;12.48;6.70;;;22.10;99.90;;;;;;4999701;28;20455;-73
2023/06/11 05:48:01;;;;;;;9.70;6.38;;;22.10;99.90;;;;;;4995576;28;20995;-73
2023/06/11 05:50:27;;;;;;;12.02;6.95;;;22.10;99.90;;;;;;4998046;28;20422;-73
2023/06/11 05:52:53;;;;;;;12.57;6.80;;;22.20;99.90;;;;;;4995509;28;20913;-73
2023/06/11 05:55:20;;;;;;;11.98;6.45;;;22.20;99.90;;;;;;5007879;28;20445;-73
2023/06/11 05:57:46;;;;;;;12.27;6.63;;;22.30;99.90;;;;;;5008396;28;20730;-74
2023/06/11 06:00:12;;;;;;;10.20;5.90;;;22.30;99.90;;;;;;5005245;28;20422;-74
2023/06/11 06:02:39;;;;;;;12.27;6.22;;;22.40;99.90;;;;;;5038851;28;21089;-74
2023/06/11 06:05:07;;;;;;;13.20;6.60;;;22.40;99.90;;;;;;5038024;28;20420;-74
2023/06/11 06:07:34;;;;;;;11.43;6.60;;;22.50;99.90;;;;;;5027781;28;20417;-74
2023/06/11 06:10:02;;;;;;;14.77;6.68;;;22.50;99.90;;;;;;5017086;28;20534;-74
2023/06/11 06:12:29;;;;;;;11.98;6.40;;;22.60;99.90;;;;;;5008402;28;20471;-75
2023/06/11 06:14:55;;;;;;;11.93;6.80;;;22.70;99.90;;;;;;5016793;28;20411;-74
2023/06/11 06:17:21;;;;;;;11.73;6.63;;;22.70;99.90;;;;;;5015120;28;20496;-74
2023/06/11 06:19:48;;;;;;;10.13;6.40;;;22.70;99.90;;;;;;5043446;28;20417;-74
2023/06/11 06:22:16;;;;;;;10.85;6.18;;;22.80;99.90;;;;;;5012431;28;20442;-74
2023/06/11 06:24:42;;;;;;;10.93;6.65;;;22.80;99.90;;;;;;5024332;28;20426;-74
2023/06/11 06:27:09;;;;;;;9.85;6.13;;;22.80;99.90;;;;;;5015716;28;20413;-74
2023/06/11 06:29:38;;;;;;;10.52;6.00;;;22.90;99.90;;;;;;5004079;28;20528;-75
2023/06/11 06:32:06;;;;;;;11.20;6.15;;;22.90;99.90;;;;;;5015197;28;20428;-74
2023/06/11 06:34:33;;;;;;;10.35;5.80;;;22.90;99.90;;;;;;5014895;28;20411;-74
2023/06/11 06:37:00;;;;;;;8.30;5.60;;;23.00;99.90;;;;;;5022169;28;20948;-74
2023/06/11 06:39:27;;;;;;;8.95;5.75;;;23.00;99.90;;;;;;5051085;28;20443;-74
2023/06/11 06:41:53;;;;;;;10.40;6.10;;;23.20;99.90;;;;;;5030769;28;20820;-75
2023/06/11 06:44:20;;;;;;;9.02;5.78;;;23.20;99.90;;;;;;5052056;28;20418;-74
2023/06/11 06:46:46;;;;;;;10.38;5.70;;;23.30;99.90;;;;;;5014263;28;20422;-74
2023/06/11 06:49:13;;;;;;;10.02;5.65;;;23.30;99.90;;;;;;5020966;28;20412;-74
2023/06/11 06:51:40;;;;;;;9.52;5.70;;;23.40;99.90;;;;;;5016265;28;20450;-74
2023/06/11 06:54:06;;;;;;;12.23;5.63;;;23.40;99.90;;;;;;5016539;28;20452;-74
2023/06/11 06:56:33;;;;;;;11.40;5.60;;;23.40;99.90;;;;;;5031736;28;20419;-74
2023/06/11 06:58:59;;;;;;;9.25;5.30;;;23.50;99.90;;;;;;5027124;28;20409;-74
2023/06/11 07:01:26;;;;;;;10.15;5.70;;;23.50;99.90;;;;;;5020135;28;20411;-74
2023/06/11 07:03:52;;;;;;;9.35;5.55;;;23.60;99.90;;;;;;5044873;28;20460;-74
2023/06/11 07:06:18;;;;;;;10.95;5.70;;;23.70;99.90;;;;;;4999890;28;20722;-74
2023/06/11 07:08:45;;;;;;;11.00;6.30;;;23.80;99.90;;;;;;5008649;28;20463;-74
2023/06/11 07:11:11;;;;;;;75.43;43.58;;;24.00;99.90;;;;;;5011988;28;20504;-75
2023/06/11 07:13:37;;;;;;;12.10;7.37;;;24.00;99.90;;;;;;5020958;28;20633;-74
2023/06/11 07:16:04;;;;;;;12.97;7.33;;;24.20;99.90;;;;;;5028615;28;20403;-74
2023/06/11 07:18:32;;;;;;;12.38;6.63;;;24.30;99.90;;;;;;5052873;28;20415;-74
2023/06/11 07:20:59;;;;;;;12.47;6.80;;;24.40;99.90;;;;;;5015702;28;20463;-74
2023/06/11 07:23:26;;;;;;;21.27;7.00;;;24.50;99.90;;;;;;5016481;28;20478;-74
2023/06/11 07:25:52;;;;;;;9.35;6.47;;;24.50;99.90;;;;;;5029779;28;20397;-74
2023/06/11 07:28:19;;;;;;;71.85;41.53;;;24.60;99.90;;;;;;5040683;28;20951;-74
2023/06/11 07:30:45;;;;;;;16.15;8.05;;;24.70;99.90;;;;;;5016455;28;20764;-74
2023/06/11 07:33:11;;;;;;;13.07;7.03;;;24.70;99.90;;;;;;5051611;28;20446;-74
2023/06/11 07:35:38;;;;;;;14.35;6.32;;;24.70;99.90;;;;;;5011451;28;20404;-74
2023/06/11 07:38:07;;;;;;;13.10;6.72;;;24.80;99.90;;;;;;5013028;28;20418;-74
2023/06/11 07:40:33;;;;;;;14.93;7.03;;;24.90;99.90;;;;;;5011028;28;21236;-74
2023/06/11 07:43:00;;;;;;;14.98;7.78;;;25.00;99.90;;;;;;5008178;28;20420;-74
2023/06/11 07:45:26;;;;;;;12.93;7.32;;;25.00;99.90;;;;;;5034093;28;20747;-76
2023/06/11 07:47:52;;;;;;;12.25;7.00;;;25.20;99.90;;;;;;5014539;28;20507;-74
2023/06/11 07:50:18;;;;;;;13.63;8.23;;;25.30;99.90;;;;;;5035096;28;20803;-74
2023/06/11 07:52:45;;;;;;;14.35;7.00;;;25.30;99.90;;;;;;5042796;28;20462;-74
2023/06/11 07:55:12;;;;;;;12.60;6.40;;;25.40;99.90;;;;;;5029303;28;20407;-74
2023/06/11 07:57:38;;;;;;;12.70;6.70;;;25.40;99.90;;;;;;5012673;28;20420;-74
2023/06/11 08:00:12;;;;;;;10.77;6.22;;;25.50;99.90;;;;;;5026759;28;20400;-74
2023/06/11 08:02:40;;;;;;;11.65;7.10;;;25.60;99.90;;;;;;5031766;28;20501;-75
2023/06/11 08:05:07;;;;;;;11.77;6.50;;;25.60;99.90;;;;;;5026156;28;22237;-75
2023/06/11 08:07:33;;;;;;;12.98;6.93;;;25.70;99.90;;;;;;5018459;28;20431;-75
2023/06/11 08:10:00;;;;;;;11.77;6.47;;;25.90;99.90;;;;;;5016026;28;20412;-75
2023/06/11 08:12:26;;;;;;;9.63;6.22;;;26.00;99.90;;;;;;5024454;28;20438;-75
2023/06/11 08:14:52;;;;;;;13.60;6.50;;;26.10;99.90;;;;;;5016631;28;20486;-73
2023/06/11 08:17:18;;;;;;;10.90;6.50;;;26.30;99.90;;;;;;5020071;28;20459;-74
2023/06/11 08:19:45;;;;;;;13.90;6.77;;;26.40;99.90;;;;;;5017709;28;20488;-74
2023/06/11 08:22:11;;;;;;;11.57;6.22;;;26.50;99.90;;;;;;5023657;28;20996;-74
2023/06/11 08:24:37;;;;;;;14.60;7.20;;;26.50;99.90;;;;;;5019242;28;20414;-74
2023/06/11 08:27:04;;;;;;;11.67;6.50;;;26.60;99.90;;;;;;5009594;28;20434;-74
2023/06/11 08:29:30;;;;;;;13.52;7.00;;;26.60;99.90;;;;;;5026396;28;20410;-74
2023/06/11 08:31:57;;;;;;;13.63;7.22;;;26.60;99.90;;;;;;5012725;28;20421;-74
2023/06/11 08:34:23;;;;;;;11.65;7.28;;;26.40;99.90;;;;;;5011783;28;20423;-74
2023/06/11 08:36:50;;;;;;;17.10;7.43;;;26.40;99.90;;;;;;5013483;28;20424;-74
2023/06/11 08:39:16;;;;;;;14.35;7.45;;;26.50;99.90;;;;;;5010844;28;20484;-74
2023/06/11 08:41:43;;;;;;;15.55;7.30;;;26.40;99.90;;;;;;5012544;28;20429;-73
2023/06/11 08:44:09;;;;;;;13.40;7.43;;;26.20;99.90;;;;;;5007859;28;20414;-74
2023/06/11 08:46:36;;;;;;;12.13;7.45;;;26.00;99.90;;;;;;4991252;28;20456;-74
2023/06/11 08:49:07;;;;;;;14.00;7.80;;;25.90;99.90;;;;;;5018119;28;20531;-74
2023/06/11 08:51:38;;;;;;;13.90;7.50;;;25.80;99.90;;;;;;4992461;28;20421;-74
2023/06/11 08:54:09;;;;;;;16.58;7.72;;;26.00;99.90;;;;;;5008590;28;21114;-74
2023/06/11 08:56:36;;;;;;;16.08;7.80;;;26.20;99.90;;;;;;5008720;28;20422;-74
2023/06/11 08:59:03;;;;;;;13.13;7.50;;;26.20;99.90;;;;;;5013593;28;20481;-74
2023/06/11 09:01:31;;;;;;;12.95;7.28;;;26.50;99.90;;;;;;5022781;28;20424;-74
2023/06/11 09:03:58;;;;;;;13.93;7.68;;;26.50;99.90;;;;;;5011794;28;20863;-74
2023/06/11 09:06:25;;;;;;;12.55;7.68;;;26.40;99.90;;;;;;5013153;28;20499;-74
2023/06/11 09:09:07;;;;;;;13.15;7.18;;;26.40;99.90;;;;;;5049970;28;20430;-74
2023/06/11 09:11:39;;;;;;;13.00;7.45;;;26.40;99.90;;;;;;5043943;28;20423;-74
2023/06/11 09:14:07;;;;;;;12.75;7.45;;;26.10;99.90;;;;;;5011110;28;20413;-74
2023/06/11 09:16:42;;;;;;;12.95;7.50;;;26.00;99.90;;;;;;5012853;28;20450;-74
2023/06/11 09:19:20;;;;;;;13.75;7.43;;;26.10;99.90;;;;;;5025373;28;20406;-74
2023/06/11 09:21:54;;;;;;;12.82;7.22;;;26.50;99.90;;;;;;5033692;28;20506;-74
2023/06/11 09:24:22;;;;;;;13.23;7.20;;;26.60;99.90;;;;;;5013077;28;20427;-74
2023/06/11 09:26:54;;;;;;;11.57;6.65;;;26.70;99.90;;;;;;5017627;28;20479;-74
2023/06/11 09:29:23;;;;;;;13.13;7.03;;;26.70;99.90;;;;;;5013095;28;20434;-74
2023/06/11 09:32:02;;;;;;;12.70;7.03;;;26.70;99.90;;;;;;5020046;28;20453;-74
2023/06/11 09:34:29;;;;;;;11.32;7.38;;;26.60;99.90;;;;;;5015001;28;20783;-74
2023/06/11 09:36:55;;;;;;;14.93;7.47;;;26.40;99.90;;;;;;5013216;28;20483;-74
2023/06/11 09:39:23;;;;;;;17.23;7.50;;;26.50;99.90;;;;;;5029390;28;20410;-74
2023/06/11 09:41:50;;;;;;;12.32;6.72;;;26.60;99.90;;;;;;5015335;28;20984;-74
2023/06/11 09:44:18;;;;;;;11.85;6.30;;;26.80;99.90;;;;;;5028274;28;20421;-74
2023/06/11 09:46:47;;;;;;;15.93;7.88;;;27.20;99.90;;;;;;5010199;28;20990;-74
2023/06/11 09:49:15;;;;;;;14.90;7.30;;;27.40;99.90;;;;;;5051307;28;20444;-74
2023/06/11 09:51:43;;;;;;;15.30;7.03;;;27.40;99.90;;;;;;5016799;28;20424;-74
2023/06/11 09:54:12;;;;;;;18.08;7.85;;;27.50;99.90;;;;;;5017385;28;20405;-74
2023/06/11 09:56:42;;;;;;;13.73;6.88;;;27.70;99.90;;;;;;5019831;28;20499;-74
2023/06/11 09:59:12;;;;;;;13.75;7.03;;;27.60;99.90;;;;;;5015506;28;20495;-75
2023/06/11 10:01:41;;;;;;;11.30;6.40;;;27.70;99.90;;;;;;5006784;28;20480;-75
2023/06/11 10:04:07;;;;;;;10.60;6.07;;;27.70;99.90;;;;;;5010009;28;20420;-74
2023/06/11 10:06:46;;;;;;;9.32;5.80;;;27.90;99.90;;;;;;5020452;28;20786;-74
2023/06/11 10:09:15;;;;;;;12.75;6.30;;;28.10;99.90;;;;;;5020829;28;20420;-74
2023/06/11 10:11:43;;;;;;;12.85;6.03;;;28.20;99.90;;;;;;5022174;28;21046;-75
2023/06/11 10:14:17;;;;;;;12.00;6.10;;;28.10;99.90;;;;;;5011524;28;20874;-74
2023/06/11 10:16:56;;;;;;;11.80;5.90;;;28.30;99.90;;;;;;5015565;28;20418;-75
2023/06/11 10:19:23;;;;;;;10.13;5.90;;;28.40;99.90;;;;;;5023637;28;20869;-75
2023/06/11 10:21:51;;;;;;;11.35;6.60;;;28.00;99.90;;;;;;5019134;28;20422;-74
2023/06/11 10:24:25;;;;;;;8.75;5.15;;;28.00;99.90;;;;;;5036452;28;20793;-75
2023/06/11 10:27:10;;;;;;;10.40;5.57;;;28.10;99.90;;;;;;5018364;28;20417;-75
2023/06/11 10:29:48;;;;;;;11.87;6.10;;;28.10;99.90;;;;;;5015985;28;20498;-74
2023/06/11 10:32:19;;;;;;;11.25;6.50;;;27.90;99.90;;;;;;5012878;28;20580;-75
2023/06/11 10:35:04;;;;;;;10.57;5.78;;;27.90;99.90;;;;;;5030557;28;20986;-75
2023/06/11 10:37:37;;;;;;;11.55;5.88;;;27.80;99.90;;;;;;5035322;28;20415;-75
2023/06/11 10:40:08;;;;;;;12.52;5.93;;;27.90;99.90;;;;;;5018865;28;21018;-75
2023/06/11 10:42:39;;;;;;;11.27;5.90;;;28.00;99.90;;;;;;5012606;28;20442;-75
2023/06/11 10:45:11;;;;;;;13.83;6.00;;;28.00;99.90;;;;;;5024299;28;20417;-75
2023/06/11 10:47:47;;;;;;;10.98;5.65;;;27.90;99.90;;;;;;5025039;28;21233;-75
2023/06/11 10:50:25;;;;;;;10.70;5.57;;;27.90;99.90;;;;;;5023633;28;20425;-74
2023/06/11 10:53:01;;;;;;;12.05;5.90;;;28.00;99.90;;;;;;5018013;28;20511;-75
2023/06/11 10:55:29;;;;;;;11.40;5.50;;;28.00;99.90;;;;;;5021110;28;20414;-75
2023/06/11 10:58:00;;;;;;;11.68;5.20;;;27.90;99.90;;;;;;5035833;28;20492;-75
2023/06/11 11:00:32;;;;;;;8.88;4.70;;;27.90;99.90;;;;;;5009150;28;20955;-75
2023/06/11 11:03:03;;;;;;;12.02;5.15;;;27.50;99.90;;;;;;5031020;28;20414;-75
2023/06/11 11:05:30;;;;;;;10.50;5.30;;;27.10;99.90;;;;;;5017235;28;20485;-74
2023/06/11 11:07:59;;;;;;;9.73;5.43;;;27.10;99.90;;;;;;5016685;28;20520;-75
2023/06/11 11:10:27;;;;;;;6.50;3.17;;;27.00;99.90;;;;;;5016828;28;20439;-75
2023/06/11 11:12:54;;;;;;;6.93;2.57;;;27.00;99.90;;;;;;5018892;28;20419;-74
2023/06/11 11:15:21;;;;;;;6.95;3.08;;;26.90;99.90;;;;;;5015189;28;20422;-74
2023/06/11 11:17:49;;;;;;;5.63;3.00;;;27.00;99.90;;;;;;5032470;28;20404;-75
2023/06/11 11:20:19;;;;;;;12.30;2.90;;;27.10;99.90;;;;;;5033008;28;20547;-75
2023/06/11 11:22:52;;;;;;;6.82;2.65;;;27.10;99.90;;;;;;5015523;28;20413;-74
2023/06/11 11:25:29;;;;;;;5.93;2.65;;;27.20;99.90;;;;;;5047102;28;20471;-74
2023/06/11 11:27:56;;;;;;;6.28;2.88;;;27.10;99.90;;;;;;5015565;28;20416;-74
2023/06/11 11:30:28;;;;;;;5.63;2.67;;;27.10;99.90;;;;;;5018607;28;20449;-74
2023/06/11 11:32:56;;;;;;;5.25;2.40;;;27.20;99.90;;;;;;5013783;28;20463;-74
2023/06/11 11:35:25;;;;;;;6.33;3.10;;;27.10;99.90;;;;;;5016492;28;20729;-74
2023/06/11 11:37:51;;;;;;;6.03;2.85;;;27.30;99.90;;;;;;5011635;28;20459;-74
2023/06/11 11:40:22;;;;;;;6.93;2.87;;;27.30;99.90;;;;;;5003605;28;20440;-74
2023/06/11 11:42:55;;;;;;;5.18;2.85;;;27.30;99.90;;;;;;5049064;28;20407;-74
2023/06/11 11:45:31;;;;;;;5.93;3.00;;;27.40;99.90;;;;;;5021495;28;20973;-74
2023/06/11 11:47:57;;;;;;;5.45;3.03;;;27.40;99.90;;;;;;5020841;28;20942;-74
2023/06/11 11:50:31;;;;;;;9.90;3.03;;;27.40;99.90;;;;;;5033781;28;20649;-74
2023/06/11 11:53:08;;;;;;;7.40;3.00;;;27.40;99.90;;;;;;5013036;28;20488;-75
2023/06/11 11:55:39;;;;;;;8.30;3.38;;;27.30;99.90;;;;;;5050399;28;20470;-74
2023/06/11 11:58:11;;;;;;;5.90;2.90;;;27.30;99.90;;;;;;5015397;28;20713;-75
2023/06/11 12:00:50;;;;;;;7.00;3.22;;;27.30;99.90;;;;;;5031038;28;20419;-75
2023/06/11 12:03:24;;;;;;;8.95;3.30;;;27.20;99.90;;;;;;5013571;28;21209;-74
2023/06/11 12:05:58;;;;;;;9.25;2.90;;;27.10;99.90;;;;;;5041220;28;20451;-75
2023/06/11 12:08:25;;;;;;;9.38;3.58;;;27.10;99.90;;;;;;5015097;28;20946;-74
2023/06/11 12:10:51;;;;;;;8.25;3.40;;;27.00;99.90;;;;;;5017212;28;20837;-74
2023/06/11 12:13:18;;;;;;;6.97;3.17;;;27.00;99.90;;;;;;5017647;28;20448;-74
2023/06/11 12:15:44;;;;;;;7.07;3.35;;;27.00;99.90;;;;;;5012016;28;20419;-74
2023/06/11 12:18:11;;;;;;;10.07;3.22;;;26.90;99.90;;;;;;5020035;28;20442;-74
2023/06/11 12:20:37;;;;;;;7.38;3.50;;;26.90;99.90;;;;;;5051809;28;20434;-74
2023/06/11 12:23:03;;;;;;;7.07;3.10;;;26.90;99.90;;;;;;5018140;28;20739;-74
2023/06/11 12:25:32;;;;;;;10.32;3.50;;;26.90;99.90;;;;;;5009270;28;20953;-74
2023/06/11 12:28:03;;;;;;;9.30;3.25;;;26.90;99.90;;;;;;5015005;28;20921;-74
2023/06/11 12:30:33;;;;;;;9.00;3.25;;;26.80;99.90;;;;;;5016332;28;20437;-74
2023/06/11 12:33:01;;;;;;;7.30;3.50;;;26.80;99.90;;;;;;5027125;28;20447;-74
2023/06/11 12:35:30;;;;;;;9.65;3.30;;;26.80;99.90;;;;;;5041848;28;20521;-74
2023/06/11 12:37:57;;;;;;;9.27;3.75;;;26.80;99.90;;;;;;5013318;28;20417;-74
2023/06/11 12:40:24;;;;;;;7.63;3.20;;;26.70;99.90;;;;;;5007128;28;20522;-74
2023/06/11 12:42:56;;;;;;;9.43;3.22;;;26.80;99.90;;;;;;5024319;28;21046;-74
2023/06/11 12:45:25;;;;;;;6.97;3.30;;;26.80;99.90;;;;;;5013440;28;20434;-74